This is the latest recevied weather packets stored in our database for station/object EA1ZE. If no packets are shown the sender has not sent any weather packets the latest 10 day(s).
| Time | Temp. | Humidity | Pressure | Rain* | Wind** | Luminosity | Snow |
|---|---|---|---|---|---|---|---|
| 1788119146 | 23.89° C | 35% | 1016.1 hPa | 0 mm | - | - | - |
| 1788118244 | 24.44° C | 34% | 1015.9 hPa | 0 mm | - | - | - |
| 1788117375 | 25° C | 32% | 1015.7 hPa | 0 mm | - | - | - |
| 1788116454 | 25.56° C | 32% | 1015.6 hPa | 0 mm | - | - | - |
| 1788115542 | 26.11° C | 31% | 1015.5 hPa | 0 mm | - | - | - |
| 1788114641 | 26.67° C | 30% | 1015.3 hPa | 0 mm | - | - | - |
| 1788113743 | 27.22° C | 29% | 1015.4 hPa | 0 mm | - | - | - |
| 1788112843 | 27.22° C | 29% | 1015.3 hPa | 0 mm | - | - | - |
| 1788111940 | 27.22° C | 28% | 1015.3 hPa | 0 mm | - | - | - |
| 1788111046 | 27.78° C | 28% | 1015.2 hPa | 0 mm | - | - | - |
| 1788110138 | 27.78° C | 30% | 1015.1 hPa | 0 mm | - | - | - |
| 1788109238 | 27.78° C | 30% | 1015.1 hPa | 0 mm | - | - | - |
| 1788108337 | 27.78° C | 31% | 1015 hPa | 0 mm | - | - | - |
| 1788107440 | 27.78° C | 32% | 1015 hPa | 0 mm | - | - | - |
| 1788106541 | 28.33° C | 32% | 1015 hPa | 0 mm | - | - | - |
| 1788105640 | 27.78° C | 34% | 1015.1 hPa | 0 mm | - | - | - |
| 1788104737 | 27.78° C | 35% | 1015 hPa | 0 mm | - | - | - |
| 1788103835 | 27.78° C | 36% | 1015 hPa | 0 mm | - | - | - |
| 1788102931 | 28.33° C | 37% | 1014.9 hPa | 0 mm | - | - | - |
| 1788102030 | 27.78° C | 38% | 1015 hPa | 0 mm | - | - | - |
| 1788101130 | 27.78° C | 37% | 1015 hPa | 0 mm | - | - | - |
| 1788100226 | 27.22° C | 38% | 1015.2 hPa | 0 mm | - | - | - |
| 1788099326 | 27.22° C | 40% | 1015.2 hPa | 0 mm | - | - | - |
| 1788098424 | 27.22° C | 41% | 1015.3 hPa | 0 mm | - | - | - |
| 1788097523 | 27.22° C | 41% | 1015.3 hPa | 0 mm | - | - | - |
* Rain latest hour (hover to see other rain measurements)
** Current wind speed in m/s (hover to see current wind gust speed)